sensor_id;sensor_type;location;lat;lon;timestamp;pressure;altitude;pressure_sealevel;temperature;humidity
38530;BME280;24301;54.332;48.386;2023-04-06T00:02:14;99042.41;;;10.43;44.90
38530;BME280;24301;54.332;48.386;2023-04-06T00:04:40;99042.41;;;10.40;45.10
38530;BME280;24301;54.332;48.386;2023-04-06T00:07:06;99043.34;;;10.35;45.03
38530;BME280;24301;54.332;48.386;2023-04-06T00:09:32;99039.84;;;10.35;44.87
38530;BME280;24301;54.332;48.386;2023-04-06T00:11:58;99046.88;;;10.34;45.09
38530;BME280;24301;54.332;48.386;2023-04-06T00:14:24;99039.03;;;10.31;45.01
38530;BME280;24301;54.332;48.386;2023-04-06T00:16:50;99047.81;;;10.30;44.87
38530;BME280;24301;54.332;48.386;2023-04-06T00:19:16;99038.19;;;10.28;45.07
38530;BME280;24301;54.332;48.386;2023-04-06T00:21:42;99042.53;;;10.30;45.10
38530;BME280;24301;54.332;48.386;2023-04-06T00:24:08;99055.72;;;10.27;44.82
38530;BME280;24301;54.332;48.386;2023-04-06T00:26:34;99043.41;;;10.31;45.03
38530;BME280;24301;54.332;48.386;2023-04-06T00:28:59;99046.09;;;10.26;45.51
38530;BME280;24301;54.332;48.386;2023-04-06T00:31:25;99057.47;;;10.27;45.32
38530;BME280;24301;54.332;48.386;2023-04-06T00:33:51;99047.00;;;10.24;45.42
38530;BME280;24301;54.332;48.386;2023-04-06T00:36:17;99054.88;;;10.25;45.34
38530;BME280;24301;54.332;48.386;2023-04-06T00:38:43;99050.56;;;10.19;45.54
38530;BME280;24301;54.332;48.386;2023-04-06T00:41:09;99067.19;;;10.18;45.44
38530;BME280;24301;54.332;48.386;2023-04-06T00:43:35;99062.00;;;10.14;45.72
38530;BME280;24301;54.332;48.386;2023-04-06T00:46:01;99058.56;;;10.09;45.61
38530;BME280;24301;54.332;48.386;2023-04-06T00:48:27;99057.72;;;10.06;45.72
38530;BME280;24301;54.332;48.386;2023-04-06T00:50:53;99057.78;;;10.00;45.93
38530;BME280;24301;54.332;48.386;2023-04-06T00:53:19;99060.38;;;10.03;45.82
38530;BME280;24301;54.332;48.386;2023-04-06T00:55:45;99063.00;;;10.02;45.90
38530;BME280;24301;54.332;48.386;2023-04-06T00:58:11;99052.50;;;10.03;46.03
38530;BME280;24301;54.332;48.386;2023-04-06T01:00:47;99062.16;;;10.01;45.92
38530;BME280;24301;54.332;48.386;2023-04-06T01:03:16;99045.56;;;9.95;46.01
38530;BME280;24301;54.332;48.386;2023-04-06T01:05:43;99059.56;;;9.98;46.17
38530;BME280;24301;54.332;48.386;2023-04-06T01:08:23;99061.28;;;9.99;45.96
38530;BME280;24301;54.332;48.386;2023-04-06T01:10:54;99068.28;;;9.97;46.18
38530;BME280;24301;54.332;48.386;2023-04-06T01:13:25;99054.31;;;9.97;46.47
38530;BME280;24301;54.332;48.386;2023-04-06T01:15:54;99054.31;;;9.97;45.91
38530;BME280;24301;54.332;48.386;2023-04-06T01:18:28;99055.19;;;9.94;46.28
38530;BME280;24301;54.332;48.386;2023-04-06T01:21:10;99062.25;;;9.90;46.36
38530;BME280;24301;54.332;48.386;2023-04-06T01:23:45;99057.94;;;9.86;46.46
38530;BME280;24301;54.332;48.386;2023-04-06T01:26:13;99064.94;;;9.83;46.71
38530;BME280;24301;54.332;48.386;2023-04-06T01:28:39;99064.09;;;9.81;46.62
38530;BME280;24301;54.332;48.386;2023-04-06T01:31:16;99064.13;;;9.77;46.87
38530;BME280;24301;54.332;48.386;2023-04-06T01:33:45;99063.25;;;9.78;46.38
38530;BME280;24301;54.332;48.386;2023-04-06T01:36:16;99065.91;;;9.75;46.98
38530;BME280;24301;54.332;48.386;2023-04-06T01:38:44;99066.78;;;9.71;47.04
38530;BME280;24301;54.332;48.386;2023-04-06T01:41:11;99065.91;;;9.72;47.05
38530;BME280;24301;54.332;48.386;2023-04-06T01:43:47;99070.31;;;9.70;47.39
38530;BME280;24301;54.332;48.386;2023-04-06T01:46:14;99061.63;;;9.65;47.46
38530;BME280;24301;54.332;48.386;2023-04-06T01:48:42;99079.13;;;9.65;47.64
38530;BME280;24301;54.332;48.386;2023-04-06T01:51:23;99087.00;;;9.63;47.56
38530;BME280;24301;54.332;48.386;2023-04-06T01:53:54;99080.91;;;9.61;47.80
38530;BME280;24301;54.332;48.386;2023-04-06T01:56:25;99091.41;;;9.62;47.67
38530;BME280;24301;54.332;48.386;2023-04-06T01:59:11;99089.66;;;9.58;47.91
38530;BME280;24301;54.332;48.386;2023-04-06T02:01:40;99085.34;;;9.53;47.96
38530;BME280;24301;54.332;48.386;2023-04-06T02:04:07;99098.44;;;9.54;47.96
38530;BME280;24301;54.332;48.386;2023-04-06T02:06:33;99097.59;;;9.54;47.83
38530;BME280;24301;54.332;48.386;2023-04-06T02:09:01;99101.97;;;9.53;48.02
38530;BME280;24301;54.332;48.386;2023-04-06T02:11:27;99105.47;;;9.52;47.96
38530;BME280;24301;54.332;48.386;2023-04-06T02:13:55;99109.84;;;9.52;48.21
38530;BME280;24301;54.332;48.386;2023-04-06T02:16:45;99110.75;;;9.49;48.34
38530;BME280;24301;54.332;48.386;2023-04-06T02:19:11;99101.09;;;9.51;48.24
38530;BME280;24301;54.332;48.386;2023-04-06T02:21:37;99110.72;;;9.52;48.32
38530;BME280;24301;54.332;48.386;2023-04-06T02:24:03;99111.56;;;9.56;48.28
38530;BME280;24301;54.332;48.386;2023-04-06T02:26:29;99106.28;;;9.57;48.46
38530;BME280;24301;54.332;48.386;2023-04-06T02:28:55;99110.66;;;9.60;48.42
38530;BME280;24301;54.332;48.386;2023-04-06T02:31:21;99108.00;;;9.63;48.29
38530;BME280;24301;54.332;48.386;2023-04-06T02:33:48;99094.84;;;9.68;48.40
38530;BME280;24301;54.332;48.386;2023-04-06T02:36:15;99116.66;;;9.71;48.19
38530;BME280;24301;54.332;48.386;2023-04-06T02:38:41;99121.88;;;9.77;48.40
38530;BME280;24301;54.332;48.386;2023-04-06T02:41:07;99103.38;;;9.91;47.71
38530;BME280;24301;54.332;48.386;2023-04-06T02:43:33;99113.72;;;10.07;47.64
38530;BME280;24301;54.332;48.386;2023-04-06T02:46:19;99119.75;;;10.17;47.50
38530;BME280;24301;54.332;48.386;2023-04-06T02:48:46;99114.41;;;10.26;47.29
38530;BME280;24301;54.332;48.386;2023-04-06T02:51:13;99112.47;;;10.44;46.92
38530;BME280;24301;54.332;48.386;2023-04-06T02:53:42;99113.94;;;10.68;46.54
38530;BME280;24301;54.332;48.386;2023-04-06T02:56:08;99117.22;;;10.84;46.11
38530;BME280;24301;54.332;48.386;2023-04-06T02:58:42;99126.63;;;11.02;45.88
38530;BME280;24301;54.332;48.386;2023-04-06T03:01:08;99126.41;;;11.18;45.47
38530;BME280;24301;54.332;48.386;2023-04-06T03:03:35;99129.69;;;11.34;44.88
38530;BME280;24301;54.332;48.386;2023-04-06T03:06:03;99124.94;;;11.56;44.41
38530;BME280;24301;54.332;48.386;2023-04-06T03:08:30;99126.38;;;11.74;44.13
38530;BME280;24301;54.332;48.386;2023-04-06T03:10:57;99132.28;;;11.89;44.15
38530;BME280;24301;54.332;48.386;2023-04-06T03:13:31;99127.59;;;12.08;43.71
38530;BME280;24301;54.332;48.386;2023-04-06T03:15:57;99130.88;;;12.21;43.33
38530;BME280;24301;54.332;48.386;2023-04-06T03:18:24;99138.56;;;12.33;42.85
38530;BME280;24301;54.332;48.386;2023-04-06T03:20:52;99135.53;;;12.54;42.47
38530;BME280;24301;54.332;48.386;2023-04-06T03:23:25;99129.97;;;12.68;42.55
38530;BME280;24301;54.332;48.386;2023-04-06T03:25:56;99140.81;;;12.94;41.84
38530;BME280;24301;54.332;48.386;2023-04-06T03:28:22;99139.19;;;13.30;41.18
38530;BME280;24301;54.332;48.386;2023-04-06T03:31:01;99149.78;;;13.66;40.63
38530;BME280;24301;54.332;48.386;2023-04-06T03:33:55;99142.75;;;14.01;39.81
38530;BME280;24301;54.332;48.386;2023-04-06T03:36:26;99145.25;;;14.07;39.39
38530;BME280;24301;54.332;48.386;2023-04-06T03:38:54;99140.09;;;14.01;39.56
38530;BME280;24301;54.332;48.386;2023-04-06T03:41:20;99142.22;;;14.21;39.26
38530;BME280;24301;54.332;48.386;2023-04-06T03:44:07;99148.50;;;14.17;38.95
38530;BME280;24301;54.332;48.386;2023-04-06T03:46:33;99150.53;;;14.39;38.69
38530;BME280;24301;54.332;48.386;2023-04-06T03:48:59;99153.72;;;14.85;38.02
38530;BME280;24301;54.332;48.386;2023-04-06T03:51:25;99167.34;;;15.01;37.06
38530;BME280;24301;54.332;48.386;2023-04-06T03:53:51;99161.69;;;15.42;36.67
38530;BME280;24301;54.332;48.386;2023-04-06T03:56:17;99162.59;;;15.43;36.37
38530;BME280;24301;54.332;48.386;2023-04-06T03:58:43;99161.88;;;15.64;36.09
38530;BME280;24301;54.332;48.386;2023-04-06T04:01:12;99155.88;;;15.86;35.44
38530;BME280;24301;54.332;48.386;2023-04-06T04:03:37;99152.41;;;16.11;35.36
38530;BME280;24301;54.332;48.386;2023-04-06T04:06:03;99153.44;;;16.07;35.12
38530;BME280;24301;54.332;48.386;2023-04-06T04:08:30;99150.09;;;15.73;35.48
38530;BME280;24301;54.332;48.386;2023-04-06T04:10:55;99170.47;;;15.16;36.28
38530;BME280;24301;54.332;48.386;2023-04-06T04:13:22;99151.38;;;15.61;35.92
38530;BME280;24301;54.332;48.386;2023-04-06T04:15:50;99150.75;;;15.25;35.98
38530;BME280;24301;54.332;48.386;2023-04-06T04:18:16;99157.63;;;14.72;36.87
38530;BME280;24301;54.332;48.386;2023-04-06T04:20:42;99168.03;;;14.78;36.86
38530;BME280;24301;54.332;48.386;2023-04-06T04:23:09;99151.25;;;15.09;36.37
38530;BME280;24301;54.332;48.386;2023-04-06T04:25:35;99169.16;;;15.29;35.93
38530;BME280;24301;54.332;48.386;2023-04-06T04:28:02;99163.06;;;15.56;35.60
38530;BME280;24301;54.332;48.386;2023-04-06T04:30:29;99146.97;;;16.16;34.93
38530;BME280;24301;54.332;48.386;2023-04-06T04:32:55;99167.81;;;16.27;34.42
38530;BME280;24301;54.332;48.386;2023-04-06T04:35:22;99144.53;;;16.84;33.60
38530;BME280;24301;54.332;48.386;2023-04-06T04:37:49;99164.31;;;16.50;33.73
38530;BME280;24301;54.332;48.386;2023-04-06T04:40:15;99164.69;;;16.39;34.24
38530;BME280;24301;54.332;48.386;2023-04-06T04:43:02;99180.19;;;15.99;34.42
38530;BME280;24301;54.332;48.386;2023-04-06T04:45:32;99170.94;;;16.87;33.60
38530;BME280;24301;54.332;48.386;2023-04-06T04:48:03;99169.56;;;17.24;32.97
38530;BME280;24301;54.332;48.386;2023-04-06T04:50:43;99179.88;;;17.10;32.54
38530;BME280;24301;54.332;48.386;2023-04-06T04:53:08;99169.22;;;17.34;32.46
38530;BME280;24301;54.332;48.386;2023-04-06T04:55:35;99165.00;;;17.50;32.10
38530;BME280;24301;54.332;48.386;2023-04-06T04:58:01;99164.63;;;16.42;33.17
38530;BME280;24301;54.332;48.386;2023-04-06T05:00:50;99170.19;;;16.34;33.49
38530;BME280;24301;54.332;48.386;2023-04-06T05:03:22;99176.50;;;16.81;32.68
38530;BME280;24301;54.332;48.386;2023-04-06T05:05:55;99166.59;;;17.10;32.04
38530;BME280;24301;54.332;48.386;2023-04-06T05:08:24;99184.63;;;17.24;32.09
38530;BME280;24301;54.332;48.386;2023-04-06T05:10:50;99174.94;;;17.90;31.25
38530;BME280;24301;54.332;48.386;2023-04-06T05:13:17;99187.03;;;18.19;30.53
38530;BME280;24301;54.332;48.386;2023-04-06T05:15:46;99195.59;;;18.67;30.03
38530;BME280;24301;54.332;48.386;2023-04-06T05:18:23;99195.19;;;19.17;29.09
38530;BME280;24301;54.332;48.386;2023-04-06T05:20:49;99192.41;;;19.20;28.83
38530;BME280;24301;54.332;48.386;2023-04-06T05:23:18;99196.41;;;19.85;28.35
38530;BME280;24301;54.332;48.386;2023-04-06T05:25:45;99186.88;;;18.64;28.94
38530;BME280;24301;54.332;48.386;2023-04-06T05:28:16;99193.16;;;19.41;28.79
38530;BME280;24301;54.332;48.386;2023-04-06T05:30:44;99195.19;;;19.92;27.97
38530;BME280;24301;54.332;48.386;2023-04-06T05:33:12;99197.88;;;20.27;27.39
38530;BME280;24301;54.332;48.386;2023-04-06T05:36:04;99191.38;;;20.50;27.16
38530;BME280;24301;54.332;48.386;2023-04-06T05:38:34;99197.41;;;20.01;27.33
38530;BME280;24301;54.332;48.386;2023-04-06T05:41:08;99198.81;;;20.26;26.96
38530;BME280;24301;54.332;48.386;2023-04-06T05:43:34;99196.72;;;19.98;27.00
38530;BME280;24301;54.332;48.386;2023-04-06T05:46:01;99191.44;;;20.84;26.48
38530;BME280;24301;54.332;48.386;2023-04-06T05:48:27;99186.25;;;20.46;26.45
38530;BME280;24301;54.332;48.386;2023-04-06T05:50:53;99187.34;;;20.59;26.41
38530;BME280;24301;54.332;48.386;2023-04-06T05:53:25;99202.72;;;20.89;26.41
38530;BME280;24301;54.332;48.386;2023-04-06T05:56:00;99209.69;;;21.74;25.35
38530;BME280;24301;54.332;48.386;2023-04-06T05:58:26;99199.84;;;21.74;24.91
38530;BME280;24301;54.332;48.386;2023-04-06T06:01:00;99196.84;;;22.11;24.70
38530;BME280;24301;54.332;48.386;2023-04-06T06:03:35;99196.97;;;21.13;25.46
38530;BME280;24301;54.332;48.386;2023-04-06T06:06:02;99211.09;;;21.65;25.47
38530;BME280;24301;54.332;48.386;2023-04-06T06:08:35;99215.00;;;21.58;24.83
38530;BME280;24301;54.332;48.386;2023-04-06T06:11:05;99206.41;;;21.68;24.66
38530;BME280;24301;54.332;48.386;2023-04-06T06:13:30;99216.28;;;21.18;25.54
38530;BME280;24301;54.332;48.386;2023-04-06T06:15:57;99222.03;;;22.23;24.62
38530;BME280;24301;54.332;48.386;2023-04-06T06:18:24;99200.44;;;22.71;24.01
38530;BME280;24301;54.332;48.386;2023-04-06T06:20:52;99208.97;;;22.92;23.40
38530;BME280;24301;54.332;48.386;2023-04-06T06:23:18;99206.59;;;23.02;23.10
38530;BME280;24301;54.332;48.386;2023-04-06T06:25:44;99213.72;;;22.28;23.46
38530;BME280;24301;54.332;48.386;2023-04-06T06:28:10;99220.19;;;21.93;23.81
38530;BME280;24301;54.332;48.386;2023-04-06T06:30:36;99221.50;;;21.86;24.09
38530;BME280;24301;54.332;48.386;2023-04-06T06:33:02;99224.25;;;22.31;24.26
38530;BME280;24301;54.332;48.386;2023-04-06T06:35:29;99215.13;;;22.19;24.03
38530;BME280;24301;54.332;48.386;2023-04-06T06:37:55;99211.63;;;22.78;23.58
38530;BME280;24301;54.332;48.386;2023-04-06T06:40:24;99214.13;;;22.81;23.64
38530;BME280;24301;54.332;48.386;2023-04-06T06:42:53;99237.56;;;22.16;23.95
38530;BME280;24301;54.332;48.386;2023-04-06T06:45:31;99240.13;;;22.79;23.58
38530;BME280;24301;54.332;48.386;2023-04-06T06:47:56;99245.28;;;23.69;22.54
38530;BME280;24301;54.332;48.386;2023-04-06T06:50:22;99234.53;;;24.64;21.86
38530;BME280;24301;54.332;48.386;2023-04-06T06:52:48;99235.72;;;24.73;21.57
38530;BME280;24301;54.332;48.386;2023-04-06T06:55:14;99233.50;;;23.99;21.78
38530;BME280;24301;54.332;48.386;2023-04-06T06:57:41;99239.31;;;23.36;22.63
38530;BME280;24301;54.332;48.386;2023-04-06T07:00:09;99237.47;;;23.51;22.67
38530;BME280;24301;54.332;48.386;2023-04-06T07:02:35;99239.59;;;23.46;22.55
38530;BME280;24301;54.332;48.386;2023-04-06T07:05:02;99235.19;;;23.73;22.59
38530;BME280;24301;54.332;48.386;2023-04-06T07:07:32;99248.78;;;23.42;22.90
38530;BME280;24301;54.332;48.386;2023-04-06T07:09:58;99240.00;;;24.50;22.26
38530;BME280;24301;54.332;48.386;2023-04-06T07:12:25;99240.44;;;25.34;21.25
38530;BME280;24301;54.332;48.386;2023-04-06T07:14:51;99236.69;;;23.64;22.40
38530;BME280;24301;54.332;48.386;2023-04-06T07:17:17;99249.69;;;24.65;21.71
38530;BME280;24301;54.332;48.386;2023-04-06T07:19:43;99238.50;;;24.59;21.49
38530;BME280;24301;54.332;48.386;2023-04-06T07:22:10;99241.66;;;25.17;21.37
38530;BME280;24301;54.332;48.386;2023-04-06T07:24:36;99241.91;;;25.89;20.71
38530;BME280;24301;54.332;48.386;2023-04-06T07:27:02;99249.06;;;26.50;20.07
38530;BME280;24301;54.332;48.386;2023-04-06T07:29:28;99248.41;;;26.46;20.18
38530;BME280;24301;54.332;48.386;2023-04-06T07:31:55;99236.47;;;25.77;20.51
38530;BME280;24301;54.332;48.386;2023-04-06T07:34:21;99246.34;;;25.90;20.57
38530;BME280;24301;54.332;48.386;2023-04-06T07:36:48;99240.94;;;25.02;21.09
38530;BME280;24301;54.332;48.386;2023-04-06T07:39:14;99234.22;;;25.08;21.08
38530;BME280;24301;54.332;48.386;2023-04-06T07:41:41;99240.06;;;24.35;21.51
38530;BME280;24301;54.332;48.386;2023-04-06T07:44:07;99249.53;;;24.41;21.83
38530;BME280;24301;54.332;48.386;2023-04-06T07:46:33;99243.63;;;24.36;21.76
38530;BME280;24301;54.332;48.386;2023-04-06T07:49:00;99243.97;;;24.70;21.50
38530;BME280;24301;54.332;48.386;2023-04-06T07:51:29;99242.97;;;23.77;22.32
38530;BME280;24301;54.332;48.386;2023-04-06T07:53:56;99248.81;;;24.52;21.75
38530;BME280;24301;54.332;48.386;2023-04-06T07:56:22;99243.97;;;24.57;21.55
38530;BME280;24301;54.332;48.386;2023-04-06T07:58:48;99243.03;;;23.19;22.68
38530;BME280;24301;54.332;48.386;2023-04-06T08:01:15;99245.59;;;23.21;23.22
38530;BME280;24301;54.332;48.386;2023-04-06T08:03:41;99247.06;;;23.41;22.61
38530;BME280;24301;54.332;48.386;2023-04-06T08:06:07;99260.59;;;22.65;23.51
38530;BME280;24301;54.332;48.386;2023-04-06T08:08:33;99241.19;;;22.62;23.68
38530;BME280;24301;54.332;48.386;2023-04-06T08:10:59;99256.50;;;21.97;24.72
38530;BME280;24301;54.332;48.386;2023-04-06T08:13:25;99240.22;;;19.98;26.51
38530;BME280;24301;54.332;48.386;2023-04-06T08:15:51;99252.84;;;18.57;28.99
38530;BME280;24301;54.332;48.386;2023-04-06T08:18:17;99231.19;;;17.79;29.77
38530;BME280;24301;54.332;48.386;2023-04-06T08:20:43;99246.25;;;16.59;31.75
38530;BME280;24301;54.332;48.386;2023-04-06T08:23:09;99244.63;;;15.44;33.61
38530;BME280;24301;54.332;48.386;2023-04-06T08:25:36;99242.16;;;14.76;34.91
38530;BME280;24301;54.332;48.386;2023-04-06T08:28:03;99253.72;;;14.37;35.74
38530;BME280;24301;54.332;48.386;2023-04-06T08:30:29;99244.31;;;14.26;35.93
38530;BME280;24301;54.332;48.386;2023-04-06T08:32:55;99253.19;;;14.23;36.15
38530;BME280;24301;54.332;48.386;2023-04-06T08:35:21;99252.22;;;13.91;36.81
38530;BME280;24301;54.332;48.386;2023-04-06T08:37:47;99251.19;;;13.59;37.59
38530;BME280;24301;54.332;48.386;2023-04-06T08:40:13;99247.78;;;13.10;39.02
38530;BME280;24301;54.332;48.386;2023-04-06T08:42:41;99251.56;;;12.98;38.82
38530;BME280;24301;54.332;48.386;2023-04-06T08:45:10;99241.31;;;12.82;39.51
38530;BME280;24301;54.332;48.386;2023-04-06T08:47:36;99248.75;;;13.07;38.96
38530;BME280;24301;54.332;48.386;2023-04-06T08:50:06;99246.06;;;13.08;39.19
38530;BME280;24301;54.332;48.386;2023-04-06T08:52:33;99246.69;;;12.77;39.82
38530;BME280;24301;54.332;48.386;2023-04-06T08:55:00;99244.09;;;12.76;39.82
38530;BME280;24301;54.332;48.386;2023-04-06T08:57:26;99236.25;;;12.71;40.04
38530;BME280;24301;54.332;48.386;2023-04-06T08:59:54;99255.31;;;12.39;41.07
38530;BME280;24301;54.332;48.386;2023-04-06T09:02:21;99241.16;;;12.43;40.65
38530;BME280;24301;54.332;48.386;2023-04-06T09:04:52;99243.97;;;12.81;40.55
38530;BME280;24301;54.332;48.386;2023-04-06T09:07:19;99248.91;;;12.98;39.62
38530;BME280;24301;54.332;48.386;2023-04-06T09:09:45;99246.41;;;12.93;39.73
38530;BME280;24301;54.332;48.386;2023-04-06T09:14:49;99239.47;;;12.87;39.55
38530;BME280;24301;54.332;48.386;2023-04-06T09:17:22;99255.00;;;13.01;39.82
38530;BME280;24301;54.332;48.386;2023-04-06T09:19:48;99244.38;;;13.04;39.09
38530;BME280;24301;54.332;48.386;2023-04-06T09:22:14;99240.69;;;13.15;39.27
38530;BME280;24301;54.332;48.386;2023-04-06T09:24:53;99232.47;;;13.29;39.13
38530;BME280;24301;54.332;48.386;2023-04-06T09:27:38;99247.47;;;13.27;39.28
38530;BME280;24301;54.332;48.386;2023-04-06T09:30:11;99239.72;;;13.17;38.93
38530;BME280;24301;54.332;48.386;2023-04-06T09:35:12;99241.47;;;13.18;39.05
38530;BME280;24301;54.332;48.386;2023-04-06T09:37:38;99242.53;;;13.10;38.96
38530;BME280;24301;54.332;48.386;2023-04-06T09:40:06;99245.00;;;13.17;39.05
38530;BME280;24301;54.332;48.386;2023-04-06T09:42:33;99246.81;;;13.15;39.06
38530;BME280;24301;54.332;48.386;2023-04-06T09:45:01;99248.84;;;13.01;38.86
38530;BME280;24301;54.332;48.386;2023-04-06T09:47:30;99258.56;;;13.00;38.81
38530;BME280;24301;54.332;48.386;2023-04-06T09:49:59;99259.31;;;13.07;38.76
38530;BME280;24301;54.332;48.386;2023-04-06T09:52:33;99253.19;;;13.05;38.80
38530;BME280;24301;54.332;48.386;2023-04-06T09:55:26;99253.28;;;12.99;38.72
38530;BME280;24301;54.332;48.386;2023-04-06T09:58:09;99251.59;;;12.96;38.77
38530;BME280;24301;54.332;48.386;2023-04-06T10:01:25;99242.31;;;12.75;38.87
38530;BME280;24301;54.332;48.386;2023-04-06T10:03:55;99255.81;;;12.59;39.40
38530;BME280;24301;54.332;48.386;2023-04-06T10:06:31;99241.59;;;12.68;38.83
38530;BME280;24301;54.332;48.386;2023-04-06T10:09:04;99245.78;;;12.31;39.38
38530;BME280;24301;54.332;48.386;2023-04-06T10:11:34;99253.88;;;12.19;39.71
38530;BME280;24301;54.332;48.386;2023-04-06T10:14:00;99255.28;;;11.82;40.72
38530;BME280;24301;54.332;48.386;2023-04-06T10:16:26;99266.88;;;11.70;41.14
38530;BME280;24301;54.332;48.386;2023-04-06T10:18:58;99254.75;;;11.58;41.38
38530;BME280;24301;54.332;48.386;2023-04-06T10:21:28;99266.56;;;11.31;41.97
38530;BME280;24301;54.332;48.386;2023-04-06T10:23:59;99267.50;;;11.27;42.86
38530;BME280;24301;54.332;48.386;2023-04-06T10:26:26;99254.47;;;11.16;42.82
38530;BME280;24301;54.332;48.386;2023-04-06T10:28:52;99259.78;;;11.13;43.24
38530;BME280;24301;54.332;48.386;2023-04-06T10:31:27;99271.09;;;11.16;42.92
38530;BME280;24301;54.332;48.386;2023-04-06T10:33:59;99270.13;;;11.27;43.19
38530;BME280;24301;54.332;48.386;2023-04-06T10:36:35;99283.09;;;11.39;43.28
38530;BME280;24301;54.332;48.386;2023-04-06T10:39:04;99268.16;;;11.43;42.98
38530;BME280;24301;54.332;48.386;2023-04-06T10:41:45;99283.81;;;11.54;42.99
38530;BME280;24301;54.332;48.386;2023-04-06T10:44:20;99276.66;;;11.63;43.11
38530;BME280;24301;54.332;48.386;2023-04-06T10:46:57;99270.28;;;11.78;42.39
38530;BME280;24301;54.332;48.386;2023-04-06T10:49:30;99271.25;;;11.71;42.34
38530;BME280;24301;54.332;48.386;2023-04-06T10:51:57;99274.56;;;11.84;42.66
38530;BME280;24301;54.332;48.386;2023-04-06T10:54:24;99300.00;;;11.87;42.41
38530;BME280;24301;54.332;48.386;2023-04-06T10:56:50;99272.00;;;11.81;41.72
38530;BME280;24301;54.332;48.386;2023-04-06T10:59:20;99267.59;;;11.82;42.07
38530;BME280;24301;54.332;48.386;2023-04-06T11:01:49;99288.63;;;11.83;41.89
38530;BME280;24301;54.332;48.386;2023-04-06T11:04:20;99269.25;;;11.89;42.08
38530;BME280;24301;54.332;48.386;2023-04-06T11:06:47;99271.25;;;11.73;42.32
38530;BME280;24301;54.332;48.386;2023-04-06T11:09:27;99278.25;;;11.75;42.34
38530;BME280;24301;54.332;48.386;2023-04-06T11:11:53;99267.34;;;11.99;41.63
38530;BME280;24301;54.332;48.386;2023-04-06T11:14:20;99275.88;;;12.16;41.62
38530;BME280;24301;54.332;48.386;2023-04-06T11:16:47;99282.00;;;12.17;41.17
38530;BME280;24301;54.332;48.386;2023-04-06T11:19:17;99278.38;;;12.24;41.33
38530;BME280;24301;54.332;48.386;2023-04-06T11:21:47;99272.91;;;12.36;41.19
38530;BME280;24301;54.332;48.386;2023-04-06T11:24:24;99268.28;;;12.51;41.07
38530;BME280;24301;54.332;48.386;2023-04-06T11:26:55;99280.75;;;12.41;40.58
38530;BME280;24301;54.332;48.386;2023-04-06T11:29:23;99256.19;;;12.38;40.41
38530;BME280;24301;54.332;48.386;2023-04-06T11:31:57;99273.88;;;12.31;40.73
38530;BME280;24301;54.332;48.386;2023-04-06T11:34:24;99280.94;;;12.29;40.56
38530;BME280;24301;54.332;48.386;2023-04-06T11:37:02;99281.72;;;12.35;40.42
38530;BME280;24301;54.332;48.386;2023-04-06T11:43:26;99283.44;;;12.36;40.30
38530;BME280;24301;54.332;48.386;2023-04-06T11:46:07;99269.38;;;12.38;40.60
38530;BME280;24301;54.332;48.386;2023-04-06T11:48:44;99281.00;;;12.24;40.43
38530;BME280;24301;54.332;48.386;2023-04-06T11:51:28;99276.06;;;12.04;41.26
38530;BME280;24301;54.332;48.386;2023-04-06T11:57:50;99275.88;;;11.57;41.52
38530;BME280;24301;54.332;48.386;2023-04-06T12:00:24;99271.53;;;11.53;41.78
38530;BME280;24301;54.332;48.386;2023-04-06T12:03:32;99249.63;;;11.50;41.37
38530;BME280;24301;54.332;48.386;2023-04-06T12:06:05;99269.56;;;11.69;41.18
38530;BME280;24301;54.332;48.386;2023-04-06T12:09:10;99285.41;;;11.66;40.92
38530;BME280;24301;54.332;48.386;2023-04-06T12:11:37;99309.09;;;11.64;41.31
38530;BME280;24301;54.332;48.386;2023-04-06T12:14:19;99289.56;;;11.81;40.79
38530;BME280;24301;54.332;48.386;2023-04-06T12:16:50;99286.75;;;11.93;40.82
38530;BME280;24301;54.332;48.386;2023-04-06T12:19:47;99277.94;;;11.94;40.86
38530;BME280;24301;54.332;48.386;2023-04-06T12:22:14;99286.16;;;11.72;41.21
38530;BME280;24301;54.332;48.386;2023-04-06T12:24:40;99286.19;;;11.71;41.37
38530;BME280;24301;54.332;48.386;2023-04-06T12:27:06;99287.94;;;11.72;41.67
38530;BME280;24301;54.332;48.386;2023-04-06T12:29:34;99280.88;;;11.74;41.47
38530;BME280;24301;54.332;48.386;2023-04-06T12:32:00;99279.25;;;11.67;41.66
38530;BME280;24301;54.332;48.386;2023-04-06T12:34:27;99264.28;;;11.69;41.63
38530;BME280;24301;54.332;48.386;2023-04-06T12:36:53;99280.03;;;11.70;42.19
38530;BME280;24301;54.332;48.386;2023-04-06T12:39:18;99277.38;;;11.73;41.87
38530;BME280;24301;54.332;48.386;2023-04-06T12:41:45;99290.63;;;11.67;42.34
38530;BME280;24301;54.332;48.386;2023-04-06T12:44:11;99278.31;;;11.69;41.84
38530;BME280;24301;54.332;48.386;2023-04-06T12:46:37;99275.94;;;11.50;42.27
38530;BME280;24301;54.332;48.386;2023-04-06T12:49:03;99305.13;;;11.30;42.61
38530;BME280;24301;54.332;48.386;2023-04-06T12:51:30;99291.19;;;11.24;42.78
38530;BME280;24301;54.332;48.386;2023-04-06T12:53:56;99284.38;;;11.07;43.32
38530;BME280;24301;54.332;48.386;2023-04-06T12:56:23;99274.72;;;11.09;43.10
38530;BME280;24301;54.332;48.386;2023-04-06T12:58:51;99287.81;;;11.14;43.56
38530;BME280;24301;54.332;48.386;2023-04-06T13:01:17;99273.94;;;11.01;43.57
38530;BME280;24301;54.332;48.386;2023-04-06T13:03:43;99287.88;;;11.09;43.40
38530;BME280;24301;54.332;48.386;2023-04-06T13:06:10;99295.13;;;10.85;43.98
38530;BME280;24301;54.332;48.386;2023-04-06T13:08:37;99291.81;;;10.68;44.16
38530;BME280;24301;54.332;48.386;2023-04-06T13:11:04;99290.88;;;10.72;44.18
38530;BME280;24301;54.332;48.386;2023-04-06T13:13:30;99289.97;;;10.77;44.30
38530;BME280;24301;54.332;48.386;2023-04-06T13:16:04;99289.09;;;10.77;44.30